sensor_id;sensor_type;location;lat;lon;timestamp;P1;durP1;ratioP1;P2;durP2;ratioP2
18076;SDS011;9165;45.714;11.362;2024-01-06T01:56:52;1.00;;;0.97;;
18076;SDS011;9165;45.714;11.362;2024-01-06T01:59:18;0.90;;;0.57;;
18076;SDS011;9165;45.714;11.362;2024-01-06T02:01:45;0.80;;;0.80;;
18076;SDS011;9165;45.714;11.362;2024-01-06T02:04:12;0.87;;;0.70;;
18076;SDS011;9165;45.714;11.362;2024-01-06T02:06:38;0.60;;;0.60;;
18076;SDS011;9165;45.714;11.362;2024-01-06T02:09:05;0.50;;;0.50;;
18076;SDS011;9165;45.714;11.362;2024-01-06T02:11:32;0.97;;;0.70;;
18076;SDS011;9165;45.714;11.362;2024-01-06T02:14:00;2.27;;;0.73;;
18076;SDS011;9165;45.714;11.362;2024-01-06T02:16:27;0.60;;;0.60;;
18076;SDS011;9165;45.714;11.362;2024-01-06T02:18:53;1.17;;;0.63;;
18076;SDS011;9165;45.714;11.362;2024-01-06T02:21:21;2.30;;;0.70;;
18076;SDS011;9165;45.714;11.362;2024-01-06T02:23:49;1.77;;;1.03;;
18076;SDS011;9165;45.714;11.362;2024-01-06T02:26:15;1.27;;;0.73;;
18076;SDS011;9165;45.714;11.362;2024-01-06T02:28:42;1.47;;;0.90;;
18076;SDS011;9165;45.714;11.362;2024-01-06T02:31:12;0.90;;;0.90;;
18076;SDS011;9165;45.714;11.362;2024-01-06T02:33:39;1.00;;;0.80;;
18076;SDS011;9165;45.714;11.362;2024-01-06T02:36:06;0.60;;;0.60;;
18076;SDS011;9165;45.714;11.362;2024-01-06T02:38:33;0.83;;;0.53;;
18076;SDS011;9165;45.714;11.362;2024-01-06T02:41:01;1.20;;;0.90;;
18076;SDS011;9165;45.714;11.362;2024-01-06T02:45:54;2.15;;;1.00;;
18076;SDS011;9165;45.714;11.362;2024-01-06T02:48:20;1.10;;;0.90;;
18076;SDS011;9165;45.714;11.362;2024-01-06T02:50:47;1.20;;;1.10;;
18076;SDS011;9165;45.714;11.362;2024-01-06T02:53:13;0.77;;;0.73;;
18076;SDS011;9165;45.714;11.362;2024-01-06T02:55:40;1.20;;;1.10;;
18076;SDS011;9165;45.714;11.362;2024-01-06T03:03:01;1.50;;;1.30;;
18076;SDS011;9165;45.714;11.362;2024-01-06T03:07:54;0.80;;;0.70;;
18076;SDS011;9165;45.714;11.362;2024-01-06T03:17:39;0.60;;;0.60;;
18076;SDS011;9165;45.714;11.362;2024-01-06T03:20:08;0.60;;;0.60;;
18076;SDS011;9165;45.714;11.362;2024-01-06T03:22:35;0.30;;;0.30;;
18076;SDS011;9165;45.714;11.362;2024-01-06T03:25:02;1.50;;;0.50;;
18076;SDS011;9165;45.714;11.362;2024-01-06T03:27:28;1.33;;;0.57;;
18076;SDS011;9165;45.714;11.362;2024-01-06T03:29:55;1.33;;;0.70;;
18076;SDS011;9165;45.714;11.362;2024-01-06T03:32:21;0.50;;;0.40;;
18076;SDS011;9165;45.714;11.362;2024-01-06T03:34:49;0.73;;;0.60;;
18076;SDS011;9165;45.714;11.362;2024-01-06T03:37:17;4.00;;;0.70;;
18076;SDS011;9165;45.714;11.362;2024-01-06T03:39:44;0.73;;;0.70;;
18076;SDS011;9165;45.714;11.362;2024-01-06T03:42:10;2.77;;;0.70;;
18076;SDS011;9165;45.714;11.362;2024-01-06T03:44:37;0.57;;;0.57;;
18076;SDS011;9165;45.714;11.362;2024-01-06T03:47:03;1.00;;;0.80;;
18076;SDS011;9165;45.714;11.362;2024-01-06T03:49:30;0.53;;;0.53;;
18076;SDS011;9165;45.714;11.362;2024-01-06T03:51:57;0.60;;;0.60;;
18076;SDS011;9165;45.714;11.362;2024-01-06T03:54:25;1.77;;;0.67;;
18076;SDS011;9165;45.714;11.362;2024-01-06T03:56:51;0.60;;;0.60;;
18076;SDS011;9165;45.714;11.362;2024-01-06T03:59:18;0.47;;;0.47;;
18076;SDS011;9165;45.714;11.362;2024-01-06T04:01:44;0.50;;;0.47;;
18076;SDS011;9165;45.714;11.362;2024-01-06T04:04:11;0.60;;;0.60;;
18076;SDS011;9165;45.714;11.362;2024-01-06T04:06:37;1.83;;;0.70;;
18076;SDS011;9165;45.714;11.362;2024-01-06T04:09:04;0.80;;;0.80;;
18076;SDS011;9165;45.714;11.362;2024-01-06T04:11:33;0.60;;;0.60;;
18076;SDS011;9165;45.714;11.362;2024-01-06T04:13:59;0.50;;;0.50;;
18076;SDS011;9165;45.714;11.362;2024-01-06T04:16:26;0.93;;;0.80;;
18076;SDS011;9165;45.714;11.362;2024-01-06T04:18:53;2.57;;;0.70;;
18076;SDS011;9165;45.714;11.362;2024-01-06T04:21:20;0.70;;;0.63;;
18076;SDS011;9165;45.714;11.362;2024-01-06T04:23:47;0.37;;;0.37;;
18076;SDS011;9165;45.714;11.362;2024-01-06T04:26:14;0.40;;;0.40;;
18076;SDS011;9165;45.714;11.362;2024-01-06T04:28:42;0.40;;;0.40;;
18076;SDS011;9165;45.714;11.362;2024-01-06T04:31:08;0.37;;;0.30;;
18076;SDS011;9165;45.714;11.362;2024-01-06T04:33:35;0.43;;;0.43;;
18076;SDS011;9165;45.714;11.362;2024-01-06T04:36:03;0.43;;;0.43;;
18076;SDS011;9165;45.714;11.362;2024-01-06T04:38:30;0.50;;;0.50;;
18076;SDS011;9165;45.714;11.362;2024-01-06T04:40:56;0.60;;;0.50;;
18076;SDS011;9165;45.714;11.362;2024-01-06T04:43:23;2.47;;;0.50;;
18076;SDS011;9165;45.714;11.362;2024-01-06T04:45:51;0.60;;;0.50;;
18076;SDS011;9165;45.714;11.362;2024-01-06T04:48:17;0.90;;;0.60;;
18076;SDS011;9165;45.714;11.362;2024-01-06T04:50:44;2.53;;;0.30;;
18076;SDS011;9165;45.714;11.362;2024-01-06T04:53:10;0.40;;;0.40;;
18076;SDS011;9165;45.714;11.362;2024-01-06T04:55:37;1.40;;;0.30;;
18076;SDS011;9165;45.714;11.362;2024-01-06T04:58:04;2.00;;;0.60;;
18076;SDS011;9165;45.714;11.362;2024-01-06T05:00:30;1.97;;;0.50;;
18076;SDS011;9165;45.714;11.362;2024-01-06T05:02:58;0.60;;;0.60;;
18076;SDS011;9165;45.714;11.362;2024-01-06T05:05:25;0.90;;;0.80;;
18076;SDS011;9165;45.714;11.362;2024-01-06T05:07:52;1.40;;;0.70;;
18076;SDS011;9165;45.714;11.362;2024-01-06T05:10:18;2.30;;;0.67;;
18076;SDS011;9165;45.714;11.362;2024-01-06T05:12:45;0.40;;;0.40;;
18076;SDS011;9165;45.714;11.362;2024-01-06T05:15:11;0.77;;;0.70;;
18076;SDS011;9165;45.714;11.362;2024-01-06T05:17:38;1.33;;;0.70;;
18076;SDS011;9165;45.714;11.362;2024-01-06T05:20:07;0.70;;;0.70;;
18076;SDS011;9165;45.714;11.362;2024-01-06T05:22:34;0.60;;;0.60;;
18076;SDS011;9165;45.714;11.362;2024-01-06T05:25:00;0.60;;;0.60;;
18076;SDS011;9165;45.714;11.362;2024-01-06T05:27:27;0.80;;;0.80;;
18076;SDS011;9165;45.714;11.362;2024-01-06T05:29:54;1.30;;;0.90;;
18076;SDS011;9165;45.714;11.362;2024-01-06T05:32:21;0.63;;;0.63;;
18076;SDS011;9165;45.714;11.362;2024-01-06T05:34:48;1.80;;;1.10;;
18076;SDS011;9165;45.714;11.362;2024-01-06T05:37:16;1.60;;;0.80;;
18076;SDS011;9165;45.714;11.362;2024-01-06T05:39:42;0.97;;;0.90;;
18076;SDS011;9165;45.714;11.362;2024-01-06T05:42:09;0.57;;;0.57;;
18076;SDS011;9165;45.714;11.362;2024-01-06T05:44:36;0.80;;;0.80;;
18076;SDS011;9165;45.714;11.362;2024-01-06T05:47:03;1.43;;;0.70;;
18076;SDS011;9165;45.714;11.362;2024-01-06T05:49:30;0.70;;;0.70;;
18076;SDS011;9165;45.714;11.362;2024-01-06T05:51:56;1.07;;;0.70;;
18076;SDS011;9165;45.714;11.362;2024-01-06T05:54:24;1.50;;;0.93;;
18076;SDS011;9165;45.714;11.362;2024-01-06T05:56:51;3.87;;;2.37;;
18076;SDS011;9165;45.714;11.362;2024-01-06T05:59:18;7.53;;;3.80;;
18076;SDS011;9165;45.714;11.362;2024-01-06T06:01:44;3.23;;;2.00;;
18076;SDS011;9165;45.714;11.362;2024-01-06T06:04:11;2.30;;;1.40;;
18076;SDS011;9165;45.714;11.362;2024-01-06T06:06:38;3.73;;;0.90;;
18076;SDS011;9165;45.714;11.362;2024-01-06T06:09:04;4.00;;;1.17;;
18076;SDS011;9165;45.714;11.362;2024-01-06T06:11:33;3.83;;;1.27;;
18076;SDS011;9165;45.714;11.362;2024-01-06T06:14:00;1.10;;;1.00;;
18076;SDS011;9165;45.714;11.362;2024-01-06T06:16:28;1.30;;;1.00;;
18076;SDS011;9165;45.714;11.362;2024-01-06T06:18:54;1.27;;;1.07;;
18076;SDS011;9165;45.714;11.362;2024-01-06T06:21:21;1.80;;;1.20;;
18076;SDS011;9165;45.714;11.362;2024-01-06T06:23:47;0.93;;;0.90;;
18076;SDS011;9165;45.714;11.362;2024-01-06T06:26:14;2.03;;;1.30;;
18076;SDS011;9165;45.714;11.362;2024-01-06T06:28:42;2.30;;;1.40;;
18076;SDS011;9165;45.714;11.362;2024-01-06T06:31:09;1.27;;;1.17;;
18076;SDS011;9165;45.714;11.362;2024-01-06T06:33:37;1.57;;;1.20;;
18076;SDS011;9165;45.714;11.362;2024-01-06T06:36:04;1.93;;;1.50;;
18076;SDS011;9165;45.714;11.362;2024-01-06T06:38:31;2.20;;;1.00;;
18076;SDS011;9165;45.714;11.362;2024-01-06T06:40:58;2.03;;;1.00;;
18076;SDS011;9165;45.714;11.362;2024-01-06T06:43:24;0.73;;;0.73;;
18076;SDS011;9165;45.714;11.362;2024-01-06T06:45:52;6.27;;;1.20;;
18076;SDS011;9165;45.714;11.362;2024-01-06T06:48:20;1.07;;;0.80;;
18076;SDS011;9165;45.714;11.362;2024-01-06T06:50:47;1.10;;;0.90;;
18076;SDS011;9165;45.714;11.362;2024-01-06T06:53:13;0.83;;;0.73;;
18076;SDS011;9165;45.714;11.362;2024-01-06T06:55:40;3.63;;;1.60;;
18076;SDS011;9165;45.714;11.362;2024-01-06T06:58:07;3.67;;;1.20;;
18076;SDS011;9165;45.714;11.362;2024-01-06T07:00:34;3.47;;;1.63;;
18076;SDS011;9165;45.714;11.362;2024-01-06T07:03:02;2.47;;;1.60;;
18076;SDS011;9165;45.714;11.362;2024-01-06T07:05:28;2.53;;;1.60;;
18076;SDS011;9165;45.714;11.362;2024-01-06T07:07:55;2.00;;;1.73;;
18076;SDS011;9165;45.714;11.362;2024-01-06T07:10:21;1.47;;;1.33;;
18076;SDS011;9165;45.714;11.362;2024-01-06T07:12:48;1.50;;;1.33;;
18076;SDS011;9165;45.714;11.362;2024-01-06T07:15:15;2.13;;;1.50;;
18076;SDS011;9165;45.714;11.362;2024-01-06T07:17:41;1.30;;;1.20;;
18076;SDS011;9165;45.714;11.362;2024-01-06T07:20:09;3.70;;;1.53;;
18076;SDS011;9165;45.714;11.362;2024-01-06T07:22:36;1.27;;;1.17;;
18076;SDS011;9165;45.714;11.362;2024-01-06T07:25:06;1.70;;;1.60;;
18076;SDS011;9165;45.714;11.362;2024-01-06T07:27:33;3.37;;;1.40;;
18076;SDS011;9165;45.714;11.362;2024-01-06T07:30:05;2.70;;;1.60;;
18076;SDS011;9165;45.714;11.362;2024-01-06T07:32:33;4.70;;;1.23;;
18076;SDS011;9165;45.714;11.362;2024-01-06T07:35:00;2.23;;;1.80;;
18076;SDS011;9165;45.714;11.362;2024-01-06T07:37:28;3.00;;;1.70;;
18076;SDS011;9165;45.714;11.362;2024-01-06T07:42:38;3.67;;;1.97;;
18076;SDS011;9165;45.714;11.362;2024-01-06T07:45:05;4.03;;;1.80;;
18076;SDS011;9165;45.714;11.362;2024-01-06T07:47:31;2.50;;;1.80;;
18076;SDS011;9165;45.714;11.362;2024-01-06T07:49:58;1.77;;;1.47;;
18076;SDS011;9165;45.714;11.362;2024-01-06T07:52:29;2.27;;;1.77;;
18076;SDS011;9165;45.714;11.362;2024-01-06T07:54:56;4.00;;;2.63;;
18076;SDS011;9165;45.714;11.362;2024-01-06T07:57:23;3.77;;;2.70;;
18076;SDS011;9165;45.714;11.362;2024-01-06T07:59:49;3.17;;;2.60;;
18076;SDS011;9165;45.714;11.362;2024-01-06T08:02:16;3.70;;;2.70;;
18076;SDS011;9165;45.714;11.362;2024-01-06T08:04:43;4.00;;;3.00;;
18076;SDS011;9165;45.714;11.362;2024-01-06T08:07:10;5.00;;;3.20;;
18076;SDS011;9165;45.714;11.362;2024-01-06T08:09:40;3.70;;;2.67;;
18076;SDS011;9165;45.714;11.362;2024-01-06T08:12:07;5.00;;;3.77;;
18076;SDS011;9165;45.714;11.362;2024-01-06T08:14:34;5.70;;;3.90;;
18076;SDS011;9165;45.714;11.362;2024-01-06T08:17:01;5.10;;;3.47;;
18076;SDS011;9165;45.714;11.362;2024-01-06T08:19:27;6.90;;;3.73;;
18076;SDS011;9165;45.714;11.362;2024-01-06T08:21:55;6.33;;;3.50;;
18076;SDS011;9165;45.714;11.362;2024-01-06T08:24:22;4.03;;;3.50;;
18076;SDS011;9165;45.714;11.362;2024-01-06T08:26:51;5.60;;;4.30;;
18076;SDS011;9165;45.714;11.362;2024-01-06T08:29:17;5.13;;;4.10;;
18076;SDS011;9165;45.714;11.362;2024-01-06T08:31:44;5.33;;;3.47;;
18076;SDS011;9165;45.714;11.362;2024-01-06T08:34:11;6.03;;;3.87;;
18076;SDS011;9165;45.714;11.362;2024-01-06T08:36:37;4.30;;;2.80;;
18076;SDS011;9165;45.714;11.362;2024-01-06T08:39:04;5.10;;;3.40;;
18076;SDS011;9165;45.714;11.362;2024-01-06T08:41:31;3.77;;;3.10;;
18076;SDS011;9165;45.714;11.362;2024-01-06T08:43:59;5.77;;;2.97;;
18076;SDS011;9165;45.714;11.362;2024-01-06T08:46:25;5.70;;;4.33;;
18076;SDS011;9165;45.714;11.362;2024-01-06T08:48:52;4.73;;;3.63;;
18076;SDS011;9165;45.714;11.362;2024-01-06T08:51:19;8.27;;;4.13;;
18076;SDS011;9165;45.714;11.362;2024-01-06T08:53:46;6.07;;;4.27;;
18076;SDS011;9165;45.714;11.362;2024-01-06T08:56:13;7.40;;;4.53;;
18076;SDS011;9165;45.714;11.362;2024-01-06T08:58:41;6.57;;;4.13;;
18076;SDS011;9165;45.714;11.362;2024-01-06T09:01:09;6.50;;;3.90;;
18076;SDS011;9165;45.714;11.362;2024-01-06T09:03:35;6.03;;;4.07;;
18076;SDS011;9165;45.714;11.362;2024-01-06T09:06:02;5.03;;;3.90;;
18076;SDS011;9165;45.714;11.362;2024-01-06T09:08:29;5.63;;;3.40;;
18076;SDS011;9165;45.714;11.362;2024-01-06T09:10:56;4.77;;;4.00;;
18076;SDS011;9165;45.714;11.362;2024-01-06T09:13:23;7.07;;;4.13;;
18076;SDS011;9165;45.714;11.362;2024-01-06T09:15:49;8.87;;;4.70;;
18076;SDS011;9165;45.714;11.362;2024-01-06T09:18:17;8.73;;;5.90;;
18076;SDS011;9165;45.714;11.362;2024-01-06T09:20:44;8.27;;;6.03;;
18076;SDS011;9165;45.714;11.362;2024-01-06T09:23:12;5.40;;;4.03;;
18076;SDS011;9165;45.714;11.362;2024-01-06T09:25:39;8.03;;;5.40;;
18076;SDS011;9165;45.714;11.362;2024-01-06T09:28:06;6.17;;;4.17;;
18076;SDS011;9165;45.714;11.362;2024-01-06T09:30:32;10.47;;;5.67;;
18076;SDS011;9165;45.714;11.362;2024-01-06T09:32:59;9.93;;;6.77;;
18076;SDS011;9165;45.714;11.362;2024-01-06T09:35:27;12.00;;;7.63;;
18076;SDS011;9165;45.714;11.362;2024-01-06T09:37:53;11.93;;;8.13;;
18076;SDS011;9165;45.714;11.362;2024-01-06T09:40:21;12.63;;;7.73;;
18076;SDS011;9165;45.714;11.362;2024-01-06T09:42:48;11.30;;;6.97;;
18076;SDS011;9165;45.714;11.362;2024-01-06T09:45:14;14.17;;;8.07;;
18076;SDS011;9165;45.714;11.362;2024-01-06T09:47:41;9.13;;;6.13;;
18076;SDS011;9165;45.714;11.362;2024-01-06T09:50:08;7.30;;;4.93;;
18076;SDS011;9165;45.714;11.362;2024-01-06T09:52:39;6.17;;;4.40;;
18076;SDS011;9165;45.714;11.362;2024-01-06T09:55:06;7.47;;;5.07;;
18076;SDS011;9165;45.714;11.362;2024-01-06T09:57:35;8.80;;;5.60;;
18076;SDS011;9165;45.714;11.362;2024-01-06T10:00:01;10.47;;;6.50;;
18076;SDS011;9165;45.714;11.362;2024-01-06T10:02:29;10.63;;;5.97;;
18076;SDS011;9165;45.714;11.362;2024-01-06T10:04:56;8.53;;;5.80;;
18076;SDS011;9165;45.714;11.362;2024-01-06T10:07:23;12.10;;;6.00;;
18076;SDS011;9165;45.714;11.362;2024-01-06T10:09:52;7.60;;;5.73;;
18076;SDS011;9165;45.714;11.362;2024-01-06T10:12:22;13.37;;;7.17;;
18076;SDS011;9165;45.714;11.362;2024-01-06T10:14:49;10.67;;;7.07;;
18076;SDS011;9165;45.714;11.362;2024-01-06T10:17:16;12.07;;;8.10;;
18076;SDS011;9165;45.714;11.362;2024-01-06T10:19:44;12.53;;;7.80;;
18076;SDS011;9165;45.714;11.362;2024-01-06T10:22:11;9.77;;;6.53;;
18076;SDS011;9165;45.714;11.362;2024-01-06T10:24:37;9.77;;;6.80;;
18076;SDS011;9165;45.714;11.362;2024-01-06T10:27:06;10.77;;;8.30;;
18076;SDS011;9165;45.714;11.362;2024-01-06T10:29:34;12.03;;;7.53;;
18076;SDS011;9165;45.714;11.362;2024-01-06T10:32:00;9.97;;;6.63;;
18076;SDS011;9165;45.714;11.362;2024-01-06T10:34:27;8.07;;;5.90;;
18076;SDS011;9165;45.714;11.362;2024-01-06T10:36:54;5.67;;;4.80;;
18076;SDS011;9165;45.714;11.362;2024-01-06T10:39:21;6.93;;;4.77;;
18076;SDS011;9165;45.714;11.362;2024-01-06T10:41:48;4.07;;;3.37;;
18076;SDS011;9165;45.714;11.362;2024-01-06T10:44:16;4.20;;;3.60;;
18076;SDS011;9165;45.714;11.362;2024-01-06T10:46:42;6.20;;;4.17;;
18076;SDS011;9165;45.714;11.362;2024-01-06T10:49:10;4.97;;;4.13;;
18076;SDS011;9165;45.714;11.362;2024-01-06T10:51:40;3.67;;;3.20;;
18076;SDS011;9165;45.714;11.362;2024-01-06T10:54:09;4.20;;;3.03;;
18076;SDS011;9165;45.714;11.362;2024-01-06T11:02:25;3.50;;;3.00;;
18076;SDS011;9165;45.714;11.362;2024-01-06T11:05:00;4.17;;;3.10;;
18076;SDS011;9165;45.714;11.362;2024-01-06T11:07:27;3.73;;;2.93;;
18076;SDS011;9165;45.714;11.362;2024-01-06T11:09:55;5.90;;;2.77;;
18076;SDS011;9165;45.714;11.362;2024-01-06T11:12:31;4.93;;;3.00;;
18076;SDS011;9165;45.714;11.362;2024-01-06T11:14:58;4.33;;;3.17;;
18076;SDS011;9165;45.714;11.362;2024-01-06T11:20:13;4.53;;;4.10;;
18076;SDS011;9165;45.714;11.362;2024-01-06T11:22:39;4.93;;;3.53;;
18076;SDS011;9165;45.714;11.362;2024-01-06T11:25:07;4.67;;;3.47;;
18076;SDS011;9165;45.714;11.362;2024-01-06T11:27:34;3.23;;;2.70;;
18076;SDS011;9165;45.714;11.362;2024-01-06T11:30:03;3.80;;;2.93;;
18076;SDS011;9165;45.714;11.362;2024-01-06T11:32:31;3.70;;;2.87;;
18076;SDS011;9165;45.714;11.362;2024-01-06T11:35:06;3.30;;;2.00;;
18076;SDS011;9165;45.714;11.362;2024-01-06T11:37:36;3.43;;;2.20;;
18076;SDS011;9165;45.714;11.362;2024-01-06T11:40:04;3.23;;;2.23;;
18076;SDS011;9165;45.714;11.362;2024-01-06T11:42:34;3.20;;;2.40;;
18076;SDS011;9165;45.714;11.362;2024-01-06T11:45:01;2.50;;;2.13;;
18076;SDS011;9165;45.714;11.362;2024-01-06T11:47:28;4.00;;;2.40;;
18076;SDS011;9165;45.714;11.362;2024-01-06T11:50:17;3.57;;;2.67;;
18076;SDS011;9165;45.714;11.362;2024-01-06T11:56:01;3.77;;;2.13;;
18076;SDS011;9165;45.714;11.362;2024-01-06T11:58:34;3.40;;;1.87;;
18076;SDS011;9165;45.714;11.362;2024-01-06T12:01:03;3.03;;;1.80;;
18076;SDS011;9165;45.714;11.362;2024-01-06T12:03:41;2.70;;;1.87;;
18076;SDS011;9165;45.714;11.362;2024-01-06T12:07:31;3.60;;;2.10;;
18076;SDS011;9165;45.714;11.362;2024-01-06T12:15:39;6.87;;;4.57;;
18076;SDS011;9165;45.714;11.362;2024-01-06T12:20:39;6.53;;;5.03;;
18076;SDS011;9165;45.714;11.362;2024-01-06T12:24:27;5.30;;;4.07;;
18076;SDS011;9165;45.714;11.362;2024-01-06T12:27:10;5.97;;;4.00;;
18076;SDS011;9165;45.714;11.362;2024-01-06T12:29:40;4.23;;;3.00;;
18076;SDS011;9165;45.714;11.362;2024-01-06T12:32:20;3.93;;;3.20;;
18076;SDS011;9165;45.714;11.362;2024-01-06T12:34:52;3.20;;;2.90;;
18076;SDS011;9165;45.714;11.362;2024-01-06T12:37:33;3.87;;;2.83;;
18076;SDS011;9165;45.714;11.362;2024-01-06T12:40:10;4.37;;;2.97;;
18076;SDS011;9165;45.714;11.362;2024-01-06T12:42:42;3.50;;;2.67;;
18076;SDS011;9165;45.714;11.362;2024-01-06T12:48:08;2.07;;;1.57;;
18076;SDS011;9165;45.714;11.362;2024-01-06T12:50:38;2.23;;;1.83;;
18076;SDS011;9165;45.714;11.362;2024-01-06T12:53:16;1.20;;;1.10;;
18076;SDS011;9165;45.714;11.362;2024-01-06T12:58:11;2.37;;;1.10;;
18076;SDS011;9165;45.714;11.362;2024-01-06T12:59:10;1.67;;;1.40;;
18076;SDS011;9165;45.714;11.362;2024-01-06T13:01:39;1.77;;;1.00;;
18076;SDS011;9165;45.714;11.362;2024-01-06T13:13:52;1.97;;;1.00;;
18076;SDS011;9165;45.714;11.362;2024-01-06T13:16:39;2.00;;;1.50;;
18076;SDS011;9165;45.714;11.362;2024-01-06T13:19:13;3.60;;;1.50;;
18076;SDS011;9165;45.714;11.362;2024-01-06T13:21:41;2.50;;;1.93;;
18076;SDS011;9165;45.714;11.362;2024-01-06T13:27:24;1.53;;;1.20;;
18076;SDS011;9165;45.714;11.362;2024-01-06T13:29:54;1.03;;;0.97;;
18076;SDS011;9165;45.714;11.362;2024-01-06T13:32:44;1.33;;;1.23;;
18076;SDS011;9165;45.714;11.362;2024-01-06T13:41:35;1.60;;;1.40;;
18076;SDS011;9165;45.714;11.362;2024-01-06T13:44:18;1.83;;;1.33;;
18076;SDS011;9165;45.714;11.362;2024-01-06T13:49:29;0.77;;;0.70;;
18076;SDS011;9165;45.714;11.362;2024-01-06T13:52:21;0.90;;;0.90;;
18076;SDS011;9165;45.714;11.362;2024-01-06T14:03:01;0.63;;;0.63;;
18076;SDS011;9165;45.714;11.362;2024-01-06T14:05:48;0.87;;;0.73;;
18076;SDS011;9165;45.714;11.362;2024-01-06T14:08:16;0.73;;;0.73;;
18076;SDS011;9165;45.714;11.362;2024-01-06T14:10:44;2.37;;;0.80;;
18076;SDS011;9165;45.714;11.362;2024-01-06T14:13:11;0.97;;;0.77;;
18076;SDS011;9165;45.714;11.362;2024-01-06T14:15:55;0.90;;;0.90;;
18076;SDS011;9165;45.714;11.362;2024-01-06T14:18:24;1.03;;;0.93;;
18076;SDS011;9165;45.714;11.362;2024-01-06T14:20:54;0.97;;;0.60;;
18076;SDS011;9165;45.714;11.362;2024-01-06T14:23:21;1.00;;;0.87;;
18076;SDS011;9165;45.714;11.362;2024-01-06T14:25:49;1.17;;;0.80;;
18076;SDS011;9165;45.714;11.362;2024-01-06T14:28:26;1.67;;;1.20;;
18076;SDS011;9165;45.714;11.362;2024-01-06T14:31:09;1.20;;;1.10;;
18076;SDS011;9165;45.714;11.362;2024-01-06T14:33:36;2.63;;;1.13;;
18076;SDS011;9165;45.714;11.362;2024-01-06T14:36:05;1.00;;;0.70;;
18076;SDS011;9165;45.714;11.362;2024-01-06T14:38:44;1.50;;;1.10;;
18076;SDS011;9165;45.714;11.362;2024-01-06T14:44:42;1.07;;;0.90;;
18076;SDS011;9165;45.714;11.362;2024-01-06T14:47:12;1.57;;;1.30;;
18076;SDS011;9165;45.714;11.362;2024-01-06T14:51:08;0.57;;;0.57;;
18076;SDS011;9165;45.714;11.362;2024-01-06T14:53:01;0.57;;;0.57;;
18076;SDS011;9165;45.714;11.362;2024-01-06T14:55:43;0.87;;;0.60;;
18076;SDS011;9165;45.714;11.362;2024-01-06T14:58:24;1.07;;;1.00;;
18076;SDS011;9165;45.714;11.362;2024-01-06T15:03:49;2.63;;;1.03;;
18076;SDS011;9165;45.714;11.362;2024-01-06T15:04:02;0.57;;;0.57;;
18076;SDS011;9165;45.714;11.362;2024-01-06T15:10:12;0.67;;;0.67;;
18076;SDS011;9165;45.714;11.362;2024-01-06T15:12:39;1.10;;;1.03;;
18076;SDS011;9165;45.714;11.362;2024-01-06T15:15:07;0.97;;;0.90;;
18076;SDS011;9165;45.714;11.362;2024-01-06T15:17:56;0.63;;;0.40;;
18076;SDS011;9165;45.714;11.362;2024-01-06T15:20:28;0.60;;;0.60;;
18076;SDS011;9165;45.714;11.362;2024-01-06T15:22:58;1.60;;;0.60;;
18076;SDS011;9165;45.714;11.362;2024-01-06T15:25:28;0.83;;;0.70;;
18076;SDS011;9165;45.714;11.362;2024-01-06T15:27:58;0.57;;;0.57;;
18076;SDS011;9165;45.714;11.362;2024-01-06T15:30:25;1.07;;;0.77;;
18076;SDS011;9165;45.714;11.362;2024-01-06T15:32:52;0.60;;;0.60;;
18076;SDS011;9165;45.714;11.362;2024-01-06T15:35:18;0.67;;;0.60;;
18076;SDS011;9165;45.714;11.362;2024-01-06T15:37:45;0.80;;;0.77;;
18076;SDS011;9165;45.714;11.362;2024-01-06T15:40:24;0.40;;;0.40;;
18076;SDS011;9165;45.714;11.362;2024-01-06T15:42:52;0.50;;;0.50;;
18076;SDS011;9165;45.714;11.362;2024-01-06T15:45:22;1.13;;;0.70;;
18076;SDS011;9165;45.714;11.362;2024-01-06T15:47:49;0.50;;;0.50;;
18076;SDS011;9165;45.714;11.362;2024-01-06T15:50:15;0.40;;;0.40;;
18076;SDS011;9165;45.714;11.362;2024-01-06T15:52:42;1.33;;;0.73;;
18076;SDS011;9165;45.714;11.362;2024-01-06T15:55:11;1.03;;;0.70;;
18076;SDS011;9165;45.714;11.362;2024-01-06T15:57:38;1.13;;;0.70;;
18076;SDS011;9165;45.714;11.362;2024-01-06T16:00:08;0.93;;;0.70;;
18076;SDS011;9165;45.714;11.362;2024-01-06T16:02:35;0.77;;;0.77;;
18076;SDS011;9165;45.714;11.362;2024-01-06T16:08:27;0.80;;;0.80;;
18076;SDS011;9165;45.714;11.362;2024-01-06T16:14:30;0.73;;;0.70;;
18076;SDS011;9165;45.714;11.362;2024-01-06T16:17:15;1.20;;;1.03;;
18076;SDS011;9165;45.714;11.362;2024-01-06T16:19:42;0.80;;;0.80;;
18076;SDS011;9165;45.714;11.362;2024-01-06T16:22:08;2.43;;;1.30;;
18076;SDS011;9165;45.714;11.362;2024-01-06T16:24:36;0.83;;;0.83;;
18076;SDS011;9165;45.714;11.362;2024-01-06T16:27:03;1.50;;;1.00;;
18076;SDS011;9165;45.714;11.362;2024-01-06T16:29:29;2.00;;;1.27;;
18076;SDS011;9165;45.714;11.362;2024-01-06T16:31:56;1.77;;;1.60;;
18076;SDS011;9165;45.714;11.362;2024-01-06T16:34:25;1.50;;;1.20;;
18076;SDS011;9165;45.714;11.362;2024-01-06T16:36:51;0.80;;;0.80;;
18076;SDS011;9165;45.714;11.362;2024-01-06T16:39:18;0.90;;;0.80;;
18076;SDS011;9165;45.714;11.362;2024-01-06T16:41:44;1.07;;;0.90;;
18076;SDS011;9165;45.714;11.362;2024-01-06T16:44:11;0.93;;;0.93;;
18076;SDS011;9165;45.714;11.362;2024-01-06T16:46:37;0.90;;;0.90;;
18076;SDS011;9165;45.714;11.362;2024-01-06T16:49:04;2.13;;;1.50;;
18076;SDS011;9165;45.714;11.362;2024-01-06T16:51:32;1.93;;;1.40;;
18076;SDS011;9165;45.714;11.362;2024-01-06T16:53:59;1.03;;;1.03;;
18076;SDS011;9165;45.714;11.362;2024-01-06T16:56:25;1.77;;;1.33;;
18076;SDS011;9165;45.714;11.362;2024-01-06T16:58:52;2.40;;;1.73;;
18076;SDS011;9165;45.714;11.362;2024-01-06T17:01:19;2.00;;;1.80;;
18076;SDS011;9165;45.714;11.362;2024-01-06T17:03:49;3.10;;;2.03;;
18076;SDS011;9165;45.714;11.362;2024-01-06T17:06:16;2.40;;;1.80;;
18076;SDS011;9165;45.714;11.362;2024-01-06T17:08:44;1.83;;;1.63;;
18076;SDS011;9165;45.714;11.362;2024-01-06T17:11:11;2.70;;;1.83;;
18076;SDS011;9165;45.714;11.362;2024-01-06T17:13:40;2.23;;;1.80;;
18076;SDS011;9165;45.714;11.362;2024-01-06T17:16:06;2.90;;;2.60;;
18076;SDS011;9165;45.714;11.362;2024-01-06T17:18:33;7.03;;;5.90;;
18076;SDS011;9165;45.714;11.362;2024-01-06T17:21:01;9.83;;;7.03;;
18076;SDS011;9165;45.714;11.362;2024-01-06T17:23:28;3.77;;;2.43;;
18076;SDS011;9165;45.714;11.362;2024-01-06T17:25:56;2.43;;;1.60;;
18076;SDS011;9165;45.714;11.362;2024-01-06T17:28:23;3.07;;;1.37;;
18076;SDS011;9165;45.714;11.362;2024-01-06T17:30:49;2.20;;;1.30;;
18076;SDS011;9165;45.714;11.362;2024-01-06T17:33:16;1.50;;;1.03;;
18076;SDS011;9165;45.714;11.362;2024-01-06T17:35:42;1.00;;;0.90;;
18076;SDS011;9165;45.714;11.362;2024-01-06T17:38:09;1.20;;;0.97;;
18076;SDS011;9165;45.714;11.362;2024-01-06T17:40:36;1.13;;;0.90;;
18076;SDS011;9165;45.714;11.362;2024-01-06T17:43:04;1.57;;;1.10;;
18076;SDS011;9165;45.714;11.362;2024-01-06T17:45:31;1.63;;;1.20;;
18076;SDS011;9165;45.714;11.362;2024-01-06T17:47:58;1.03;;;0.80;;
18076;SDS011;9165;45.714;11.362;2024-01-06T17:50:24;0.80;;;0.80;;
18076;SDS011;9165;45.714;11.362;2024-01-06T17:52:51;1.00;;;1.00;;
18076;SDS011;9165;45.714;11.362;2024-01-06T17:55:17;0.87;;;0.70;;
18076;SDS011;9165;45.714;11.362;2024-01-06T17:57:44;1.80;;;0.97;;
18076;SDS011;9165;45.714;11.362;2024-01-06T18:00:12;1.10;;;1.10;;
18076;SDS011;9165;45.714;11.362;2024-01-06T18:02:39;1.57;;;1.30;;
18076;SDS011;9165;45.714;11.362;2024-01-06T18:05:08;1.53;;;0.80;;
18076;SDS011;9165;45.714;11.362;2024-01-06T18:07:35;1.10;;;0.70;;
18076;SDS011;9165;45.714;11.362;2024-01-06T18:10:02;2.00;;;1.50;;
18076;SDS011;9165;45.714;11.362;2024-01-06T18:12:28;1.63;;;1.20;;
18076;SDS011;9165;45.714;11.362;2024-01-06T18:14:55;1.30;;;1.20;;
18076;SDS011;9165;45.714;11.362;2024-01-06T18:17:23;1.10;;;0.93;;
18076;SDS011;9165;45.714;11.362;2024-01-06T18:19:50;1.00;;;0.80;;
18076;SDS011;9165;45.714;11.362;2024-01-06T18:22:17;0.90;;;0.90;;